Aviation Digital Data Service (ADDS)

Output produced by METARs form (0059 UTC 21 October 2017)
found at http://www.aviationweather.gov/adds/metars/
 
METAR text: KHLG 210053Z 12004KT 10SM CLR 16/02 A3024 RMK AO2 SLP242 T01560022
Conditions at: KHLG (WHEELING , WV, US) observed 0053 UTC 21 October 2017
Temperature: 15.6°C (60°F)
Dewpoint: 2.2°C (36°F) [RH = 40%]
Pressure (altimeter): 30.24 inches Hg (1024.1 mb)
[Sea-level pressure: 1024.2 mb]
Winds: from the ESE (120 degrees) at 5 MPH (4 knots; 2.1 m/s)
Visibility: 10 or more miles (16+ km)
Ceiling: at least 12,000 feet AGL
Clouds: sky clear below 12,000 feet AGL
Weather: no significant weather observed at this time

METAR text: KHLG 202353Z 11003KT 10SM CLR 17/03 A3024 RMK AO2 SLP243 T01720033 10228 20167 55002
Conditions at: KHLG (WHEELING , WV, US) observed 2353 UTC 20 October 2017
Temperature: 17.2°C (63°F)
Dewpoint: 3.3°C (38°F) [RH = 39%]
Pressure (altimeter): 30.24 inches Hg (1024.1 mb)
[Sea-level pressure: 1024.3 mb]
Winds: from the ESE (110 degrees) at 3 MPH (3 knots; 1.6 m/s)
Visibility: 10 or more miles (16+ km)
Ceiling: at least 12,000 feet AGL
Clouds: sky clear below 12,000 feet AGL
Weather: no significant weather observed at this time

METAR text: KHLG 202253Z 00000KT 10SM CLR 19/01 A3023 RMK AO2 SLP238 T01890006
Conditions at: KHLG (WHEELING , WV, US) observed 2253 UTC 20 October 2017
Temperature: 18.9°C (66°F)
Dewpoint: 0.6°C (33°F) [RH = 29%]
Pressure (altimeter): 30.23 inches Hg (1023.8 mb)
[Sea-level pressure: 1023.8 mb]
Winds: calm
Visibility: 10 or more miles (16+ km)
Ceiling: at least 12,000 feet AGL
Clouds: sky clear below 12,000 feet AGL
Weather: no significant weather observed at this time

METAR text: KHLG 202153Z 00000KT 10SM CLR 21/02 A3024 RMK AO2 SLP240 T02110017
Conditions at: KHLG (WHEELING , WV, US) observed 2153 UTC 20 October 2017
Temperature: 21.1°C (70°F)
Dewpoint: 1.7°C (35°F) [RH = 28%]
Pressure (altimeter): 30.24 inches Hg (1024.1 mb)
[Sea-level pressure: 1024.0 mb]
Winds: calm
Visibility: 10 or more miles (16+ km)
Ceiling: at least 12,000 feet AGL
Clouds: sky clear below 12,000 feet AGL
Weather: no significant weather observed at this time

METAR text: KHLG 202053Z VRB03KT 10SM CLR 22/02 A3024 RMK AO2 SLP241 T02220017 56012
Conditions at: KHLG (WHEELING , WV, US) observed 2053 UTC 20 October 2017
Temperature: 22.2°C (72°F)
Dewpoint: 1.7°C (35°F) [RH = 26%]
Pressure (altimeter): 30.24 inches Hg (1024.1 mb)
[Sea-level pressure: 1024.1 mb]
Winds: variable direction winds at 3 MPH (3 knots; 1.6 m/s)
Visibility: 10 or more miles (16+ km)
Ceiling: at least 12,000 feet AGL
Clouds: sky clear below 12,000 feet AGL
Weather: no significant weather observed at this time

METAR text: KHLG 201953Z 00000KT 10SM R03/6000VP6000FT CLR 22/02 A3025 RMK AO2 SLP242 T02220017
Conditions at: KHLG (WHEELING , WV, US) observed 1953 UTC 20 October 2017
Temperature: 22.2°C (72°F)
Dewpoint: 1.7°C (35°F) [RH = 26%]
Pressure (altimeter): 30.25 inches Hg (1024.5 mb)
[Sea-level pressure: 1024.2 mb]
Winds: calm
Visibility: 10 or more miles (16+ km)
Ceiling: at least 12,000 feet AGL
Clouds: sky clear below 12,000 feet AGL
Weather: no significant weather observed at this time

METAR text: KHLG 201853Z 00000KT 10SM R03/5500VP6000FT CLR 22/01 A3026 RMK AO2 SLP245 T02170006
Conditions at: KHLG (WHEELING , WV, US) observed 1853 UTC 20 October 2017
Temperature: 21.7°C (71°F)
Dewpoint: 0.6°C (33°F) [RH = 25%]
Pressure (altimeter): 30.26 inches Hg (1024.8 mb)
[Sea-level pressure: 1024.5 mb]
Winds: calm
Visibility: 10 or more miles (16+ km)
Ceiling: at least 12,000 feet AGL
Clouds: sky clear below 12,000 feet AGL
Weather: no significant weather observed at this time

METAR text: KHLG 201753Z 36004KT 10SM CLR 21/02 A3028 RMK AO2 SLP253 T02110017 10211 20083 58014
Conditions at: KHLG (WHEELING , WV, US) observed 1753 UTC 20 October 2017
Temperature: 21.1°C (70°F)
Dewpoint: 1.7°C (35°F) [RH = 28%]
Pressure (altimeter): 30.28 inches Hg (1025.5 mb)
[Sea-level pressure: 1025.3 mb]
Winds: from the N (360 degrees) at 5 MPH (4 knots; 2.1 m/s)
Visibility: 10 or more miles (16+ km)
Ceiling: at least 12,000 feet AGL
Clouds: sky clear below 12,000 feet AGL
Weather: no significant weather observed at this time

METAR text: KHLG 201653Z 35003KT 10SM CLR 19/03 A3031 RMK AO2 SLP263 T01940028
Conditions at: KHLG (WHEELING , WV, US) observed 1653 UTC 20 October 2017
Temperature: 19.4°C (67°F)
Dewpoint: 2.8°C (37°F) [RH = 33%]
Pressure (altimeter): 30.31 inches Hg (1026.5 mb)
[Sea-level pressure: 1026.3 mb]
Winds: from the N (350 degrees) at 3 MPH (3 knots; 1.6 m/s)
Visibility: 10 or more miles (16+ km)
Ceiling: at least 12,000 feet AGL
Clouds: sky clear below 12,000 feet AGL
Weather: no significant weather observed at this time

METAR text: KHLG 201553Z 08005KT 10SM CLR 18/06 A3032 RMK AO2 SLP266 T01780061
Conditions at: KHLG (WHEELING , WV, US) observed 1553 UTC 20 October 2017
Temperature: 17.8°C (64°F)
Dewpoint: 6.1°C (43°F) [RH = 46%]
Pressure (altimeter): 30.32 inches Hg (1026.8 mb)
[Sea-level pressure: 1026.6 mb]
Winds: from the E (80 degrees) at 6 MPH (5 knots; 2.6 m/s)
Visibility: 10 or more miles (16+ km)
Ceiling: at least 12,000 feet AGL
Clouds: sky clear below 12,000 feet AGL
Weather: no significant weather observed at this time

METAR text: KHLG 201453Z 06007KT 10SM CLR 16/07 A3032 RMK AO2 SLP270 T01610067 51012
Conditions at: KHLG (WHEELING , WV, US) observed 1453 UTC 20 October 2017
Temperature: 16.1°C (61°F)
Dewpoint: 6.7°C (44°F) [RH = 54%]
Pressure (altimeter): 30.32 inches Hg (1026.8 mb)
[Sea-level pressure: 1027.0 mb]
Winds: from the ENE (60 degrees) at 8 MPH (7 knots; 3.6 m/s)
Visibility: 10 or more miles (16+ km)
Ceiling: at least 12,000 feet AGL
Clouds: sky clear below 12,000 feet AGL
Weather: no significant weather observed at this time

METAR text: KHLG 201353Z 00000KT 10SM CLR 14/09 A3032 RMK AO2 SLP270 T01390094
Conditions at: KHLG (WHEELING , WV, US) observed 1353 UTC 20 October 2017
Temperature: 13.9°C (57°F)
Dewpoint: 9.4°C (49°F) [RH = 74%]
Pressure (altimeter): 30.32 inches Hg (1026.8 mb)
[Sea-level pressure: 1027.0 mb]
Winds: calm
Visibility: 10 or more miles (16+ km)
Ceiling: at least 12,000 feet AGL
Clouds: sky clear below 12,000 feet AGL
Weather: no significant weather observed at this time

METAR text: KHLG 201253Z 00000KT 10SM CLR 11/09 A3031 RMK AO2 SLP267 T01060089
Conditions at: KHLG (WHEELING , WV, US) observed 1253 UTC 20 October 2017
Temperature: 10.6°C (51°F)
Dewpoint: 8.9°C (48°F) [RH = 89%]
Pressure (altimeter): 30.31 inches Hg (1026.5 mb)
[Sea-level pressure: 1026.7 mb]
Winds: calm
Visibility: 10 or more miles (16+ km)
Ceiling: at least 12,000 feet AGL
Clouds: sky clear below 12,000 feet AGL
Weather: no significant weather observed at this time

METAR text: KHLG 201153Z 00000KT 10SM CLR 09/08 A3029 RMK AO2 SLP259 T00940078 10133 20089 53020
Conditions at: KHLG (WHEELING , WV, US) observed 1153 UTC 20 October 2017
Temperature: 9.4°C (49°F)
Dewpoint: 7.8°C (46°F) [RH = 90%]
Pressure (altimeter): 30.29 inches Hg (1025.8 mb)
[Sea-level pressure: 1025.9 mb]
Winds: calm
Visibility: 10 or more miles (16+ km)
Ceiling: at least 12,000 feet AGL
Clouds: sky clear below 12,000 feet AGL
Weather: no significant weather observed at this time

METAR text: KHLG 201053Z 00000KT 10SM CLR 11/08 A3026 RMK AO2 SLP250 T01060078
Conditions at: KHLG (WHEELING , WV, US) observed 1053 UTC 20 October 2017
Temperature: 10.6°C (51°F)
Dewpoint: 7.8°C (46°F) [RH = 83%]
Pressure (altimeter): 30.26 inches Hg (1024.8 mb)
[Sea-level pressure: 1025.0 mb]
Winds: calm
Visibility: 10 or more miles (16+ km)
Ceiling: at least 12,000 feet AGL
Clouds: sky clear below 12,000 feet AGL
Weather: no significant weather observed at this time

METAR text: KHLG 200953Z AUTO 25003KT 10SM CLR 12/08 A3024 RMK AO2 SLP241 T01170083
Conditions at: KHLG (WHEELING , WV, US) observed 0953 UTC 20 October 2017
Temperature: 11.7°C (53°F)
Dewpoint: 8.3°C (47°F) [RH = 80%]
Pressure (altimeter): 30.24 inches Hg (1024.1 mb)
[Sea-level pressure: 1024.1 mb]
Winds: from the WSW (250 degrees) at 3 MPH (3 knots; 1.6 m/s)
Visibility: 10 or more miles (16+ km)
Ceiling: at least 12,000 feet AGL
Clouds: sky clear below 12,000 feet AGL
Weather: automated observation with no human augmentation;
there may or may not be significant weather present at this time

METAR text: KHLG 200853Z AUTO 24003KT 10SM CLR 12/08 A3022 RMK AO2 SLP235 T01220083 53004
Conditions at: KHLG (WHEELING , WV, US) observed 0853 UTC 20 October 2017
Temperature: 12.2°C (54°F)
Dewpoint: 8.3°C (47°F) [RH = 77%]
Pressure (altimeter): 30.22 inches Hg (1023.5 mb)
[Sea-level pressure: 1023.5 mb]
Winds: from the WSW (240 degrees) at 3 MPH (3 knots; 1.6 m/s)
Visibility: 10 or more miles (16+ km)
Ceiling: at least 12,000 feet AGL
Clouds: sky clear below 12,000 feet AGL
Weather: automated observation with no human augmentation;
there may or may not be significant weather present at this time

METAR text: KHLG 200753Z AUTO 22005KT 10SM CLR 12/08 A3022 RMK AO2 SLP233 T01220078
Conditions at: KHLG (WHEELING , WV, US) observed 0753 UTC 20 October 2017
Temperature: 12.2°C (54°F)
Dewpoint: 7.8°C (46°F) [RH = 74%]
Pressure (altimeter): 30.22 inches Hg (1023.5 mb)
[Sea-level pressure: 1023.3 mb]
Winds: from the SW (220 degrees) at 6 MPH (5 knots; 2.6 m/s)
Visibility: 10 or more miles (16+ km)
Ceiling: at least 12,000 feet AGL
Clouds: sky clear below 12,000 feet AGL
Weather: automated observation with no human augmentation;
there may or may not be significant weather present at this time

METAR text: KHLG 200653Z AUTO 20004KT 10SM CLR 13/08 A3021 RMK AO2 SLP231 T01280078
Conditions at: KHLG (WHEELING , WV, US) observed 0653 UTC 20 October 2017
Temperature: 12.8°C (55°F)
Dewpoint: 7.8°C (46°F) [RH = 72%]
Pressure (altimeter): 30.21 inches Hg (1023.1 mb)
[Sea-level pressure: 1023.1 mb]
Winds: from the SSW (200 degrees) at 5 MPH (4 knots; 2.1 m/s)
Visibility: 10 or more miles (16+ km)
Ceiling: at least 12,000 feet AGL
Clouds: sky clear below 12,000 feet AGL
Weather: automated observation with no human augmentation;
there may or may not be significant weather present at this time

METAR text: KHLG 200553Z AUTO 21005KT 10SM CLR 13/08 A3021 RMK AO2 SLP231 T01330078 10161 20133 51004
Conditions at: KHLG (WHEELING , WV, US) observed 0553 UTC 20 October 2017
Temperature: 13.3°C (56°F)
Dewpoint: 7.8°C (46°F) [RH = 69%]
Pressure (altimeter): 30.21 inches Hg (1023.1 mb)
[Sea-level pressure: 1023.1 mb]
Winds: from the SSW (210 degrees) at 6 MPH (5 knots; 2.6 m/s)
Visibility: 10 or more miles (16+ km)
Ceiling: at least 12,000 feet AGL
Clouds: sky clear below 12,000 feet AGL
Weather: automated observation with no human augmentation;
there may or may not be significant weather present at this time

METAR text: KHLG 200453Z AUTO 23007KT 10SM CLR 14/08 A3021 RMK AO2 SLP229 T01390078 402110083
Conditions at: KHLG (WHEELING , WV, US) observed 0453 UTC 20 October 2017
Temperature: 13.9°C (57°F)
Dewpoint: 7.8°C (46°F) [RH = 67%]
Pressure (altimeter): 30.21 inches Hg (1023.1 mb)
[Sea-level pressure: 1022.9 mb]
Winds: from the SW (230 degrees) at 8 MPH (7 knots; 3.6 m/s)
Visibility: 10 or more miles (16+ km)
Ceiling: at least 12,000 feet AGL
Clouds: sky clear below 12,000 feet AGL
Weather: automated observation with no human augmentation;
there may or may not be significant weather present at this time

METAR text: KHLG 200353Z AUTO 23006KT 10SM CLR 14/07 A3021 RMK AO2 SLP228 T01440072
Conditions at: KHLG (WHEELING , WV, US) observed 0353 UTC 20 October 2017
Temperature: 14.4°C (58°F)
Dewpoint: 7.2°C (45°F) [RH = 62%]
Pressure (altimeter): 30.21 inches Hg (1023.1 mb)
[Sea-level pressure: 1022.8 mb]
Winds: from the SW (230 degrees) at 7 MPH (6 knots; 3.1 m/s)
Visibility: 10 or more miles (16+ km)
Ceiling: at least 12,000 feet AGL
Clouds: sky clear below 12,000 feet AGL
Weather: automated observation with no human augmentation;
there may or may not be significant weather present at this time

METAR text: KHLG 200253Z AUTO 21007KT 10SM CLR 15/07 A3020 RMK AO2 SLP227 T01500072 51003
Conditions at: KHLG (WHEELING , WV, US) observed 0253 UTC 20 October 2017
Temperature: 15.0°C (59°F)
Dewpoint: 7.2°C (45°F) [RH = 60%]
Pressure (altimeter): 30.20 inches Hg (1022.8 mb)
[Sea-level pressure: 1022.7 mb]
Winds: from the SSW (210 degrees) at 8 MPH (7 knots; 3.6 m/s)
Visibility: 10 or more miles (16+ km)
Ceiling: at least 12,000 feet AGL
Clouds: sky clear below 12,000 feet AGL
Weather: automated observation with no human augmentation;
there may or may not be significant weather present at this time

METAR text: KHLG 200153Z 20007KT 10SM CLR 16/07 A3020 RMK AO2 SLP228 T01560072
Conditions at: KHLG (WHEELING , WV, US) observed 0153 UTC 20 October 2017
Temperature: 15.6°C (60°F)
Dewpoint: 7.2°C (45°F) [RH = 57%]
Pressure (altimeter): 30.20 inches Hg (1022.8 mb)
[Sea-level pressure: 1022.8 mb]
Winds: from the SSW (200 degrees) at 8 MPH (7 knots; 3.6 m/s)
Visibility: 10 or more miles (16+ km)
Ceiling: at least 12,000 feet AGL
Clouds: sky clear below 12,000 feet AGL
Weather: no significant weather observed at this time